Terminal Aerodrome Forecast
Issued by NWS

Home | Current Version | Previous Version | Text Only | Print | Product List | Glossary Off
Versions: 1 2 3 4 5 6 7 8 9 10 11 12 13 14 15 16 17 18 19 20 21 22 23 24 25 26 27 28 29 30 31 32 33 34 35 36 37 38 39 40 41 42 43 44 45 46 47 48 49 50

000
FTUS43 KLOT 291345 AAA
TAFGYY
TAF AMD
KGYY 291345Z 2914/3012 18013G23KT P6SM BKN150
     FM291430 19021G35KT P6SM BKN120
     FM291630 19023G36KT 5SM -SHRA SCT030 OVC070
     FM291730 20023G35KT P6SM -SHRA SCT035 BKN050 OVC070
     FM291930 21021G32KT P6SM VCSH BKN030 OVC060
      TEMPO 2923/3001 5SM -SHRA
     FM300100 27013G25KT P6SM BKN035
     FM300500 27012KT P6SM FEW040=

USA.gov is the U.S. government's official web portal to all federal, state and local government web resources and services.